createdAt,value
2023-04-21T00:00:42.027Z,25.57
2023-04-21T00:02:42.174Z,25.64
2023-04-21T00:04:42.185Z,25.56
2023-04-21T00:06:42.036Z,25.58
2023-04-21T00:08:42.001Z,25.61
2023-04-21T00:10:42.026Z,25.61
2023-04-21T00:12:42.012Z,25.64
2023-04-21T00:14:41.979Z,25.60
2023-04-21T00:16:42.151Z,25.61
2023-04-21T00:18:42.036Z,25.58
2023-04-21T00:20:42.018Z,25.52
2023-04-21T00:22:42.018Z,25.58
2023-04-21T00:24:42.016Z,25.65
2023-04-21T00:26:42.013Z,25.54
2023-04-21T00:28:42.079Z,25.40
2023-04-21T00:30:42.063Z,25.65
2023-04-21T00:32:42.107Z,25.58
2023-04-21T00:34:41.967Z,25.71
2023-04-21T00:36:42.109Z,25.61
2023-04-21T00:38:41.995Z,25.63
2023-04-21T00:40:42.109Z,25.65
2023-04-21T00:42:42.021Z,25.60
2023-04-21T00:44:42.024Z,25.60
2023-04-21T00:46:42.045Z,25.61
2023-04-21T00:48:41.990Z,25.65
2023-04-21T00:50:41.957Z,25.64
2023-04-21T00:52:42.006Z,25.56
2023-04-21T00:54:42.016Z,25.65
2023-04-21T00:56:42.033Z,25.60
2023-04-21T00:58:42.050Z,25.60
2023-04-21T01:00:42.118Z,25.54
2023-04-21T01:02:42.191Z,25.63
2023-04-21T01:04:42.119Z,25.60
2023-04-21T01:06:42.203Z,25.53
2023-04-21T01:08:42.115Z,25.64
2023-04-21T01:10:42.085Z,25.52
2023-04-21T01:12:42.096Z,25.63
2023-04-21T01:14:42.065Z,25.56
2023-04-21T01:16:42.194Z,25.58
2023-04-21T01:18:42.080Z,25.56
2023-04-21T01:20:42.121Z,25.54
2023-04-21T01:22:42.114Z,25.56
2023-04-21T01:24:42.172Z,25.52
2023-04-21T01:26:42.114Z,25.60
2023-04-21T01:28:42.157Z,25.60
2023-04-21T01:30:42.138Z,25.54
2023-04-21T01:32:42.203Z,25.57
2023-04-21T01:34:42.168Z,25.58
2023-04-21T01:36:42.098Z,25.54
2023-04-21T01:38:42.139Z,25.58
2023-04-21T01:40:42.153Z,25.65
2023-04-21T01:42:42.061Z,25.56
2023-04-21T01:44:42.138Z,25.60
2023-04-21T01:46:42.047Z,25.65
2023-04-21T01:48:42.120Z,25.61
2023-04-21T01:50:42.104Z,25.58
2023-04-21T01:52:42.106Z,25.55
2023-04-21T01:54:42.142Z,25.74
2023-04-21T01:56:42.152Z,25.52
2023-04-21T01:58:42.103Z,25.65
2023-04-21T02:00:42.149Z,24.66
2023-04-21T02:02:42.394Z,24.38
2023-04-21T02:04:42.219Z,24.30
2023-04-21T02:06:42.173Z,24.10
2023-04-21T02:08:42.130Z,23.93
2023-04-21T02:10:42.165Z,23.96
2023-04-21T02:12:42.166Z,23.82
2023-04-21T02:14:42.103Z,23.81
2023-04-21T02:16:42.132Z,23.81
2023-04-21T02:18:42.177Z,23.80
2023-04-21T02:20:42.200Z,23.80
2023-04-21T02:22:42.100Z,23.82
2023-04-21T02:24:42.125Z,23.80
2023-04-21T02:26:42.101Z,23.79
2023-04-21T02:28:42.181Z,23.73
2023-04-21T02:30:42.676Z,23.72
2023-04-21T02:32:42.273Z,23.76
2023-04-21T02:34:42.101Z,23.80
2023-04-21T02:36:42.174Z,23.73
2023-04-21T02:38:42.108Z,23.79
2023-04-21T02:40:42.165Z,23.72
2023-04-21T02:42:42.161Z,23.69
2023-04-21T02:44:42.161Z,23.69
2023-04-21T02:46:42.221Z,23.72
2023-04-21T02:48:42.106Z,23.73
2023-04-21T02:50:42.119Z,23.63
2023-04-21T02:52:42.220Z,23.65
2023-04-21T02:54:42.219Z,23.70
2023-04-21T02:56:42.214Z,23.65
2023-04-21T02:58:42.185Z,23.65
2023-04-21T03:00:42.219Z,23.68
2023-04-21T03:02:42.283Z,23.62
2023-04-21T03:04:42.259Z,23.64
2023-04-21T03:06:42.216Z,23.68
2023-04-21T03:08:42.201Z,23.65
2023-04-21T03:10:42.263Z,23.66
2023-04-21T03:12:42.214Z,23.77
2023-04-21T03:14:42.202Z,23.57
2023-04-21T03:16:42.221Z,23.63
2023-04-21T03:18:42.105Z,23.57
2023-04-21T03:20:42.262Z,23.62
2023-04-21T03:22:42.211Z,23.61
2023-04-21T03:24:42.299Z,23.62
2023-04-21T03:26:42.191Z,23.61
2023-04-21T03:28:42.207Z,23.59
2023-04-21T03:30:42.237Z,23.53
2023-04-21T03:32:42.273Z,23.51
2023-04-21T03:34:42.230Z,23.53
2023-04-21T03:36:42.222Z,23.44
2023-04-21T03:38:42.264Z,23.41
2023-04-21T03:40:42.123Z,23.44
2023-04-21T03:42:42.248Z,23.43
2023-04-21T03:44:42.260Z,23.40
2023-04-21T03:46:42.304Z,23.39
2023-04-21T03:48:42.215Z,23.39
2023-04-21T03:50:42.152Z,23.42
2023-04-21T03:52:42.316Z,23.37
2023-04-21T03:54:42.315Z,23.34
2023-04-21T03:56:42.272Z,23.34
2023-04-21T03:58:42.226Z,23.27
2023-04-21T04:00:42.255Z,23.15
2023-04-21T04:02:42.459Z,23.12
2023-04-21T04:04:42.345Z,22.97
2023-04-21T04:06:42.306Z,23.15
2023-04-21T04:08:42.295Z,23.18
2023-04-21T04:10:42.235Z,23.03
2023-04-21T04:12:42.295Z,23.23
2023-04-21T04:14:42.307Z,23.16
2023-04-21T04:16:42.612Z,22.96
2023-04-21T04:18:42.518Z,23.18
2023-04-21T04:20:42.444Z,23.13
2023-04-21T04:22:42.349Z,23.06
2023-04-21T04:24:42.300Z,23.10
2023-04-21T04:26:42.242Z,23.01
2023-04-21T04:28:42.313Z,23.09
2023-04-21T04:30:42.221Z,23.27
2023-04-21T04:32:42.345Z,23.24
2023-04-21T04:34:42.221Z,23.25
2023-04-21T04:36:42.298Z,23.23
2023-04-21T04:38:42.398Z,23.31
2023-04-21T04:40:42.260Z,23.21
2023-04-21T04:42:42.283Z,23.27
2023-04-21T04:44:42.340Z,23.25
2023-04-21T04:46:42.338Z,23.23
2023-04-21T04:48:42.333Z,23.25
2023-04-21T04:50:42.348Z,23.26
2023-04-21T04:52:42.362Z,23.29
2023-04-21T04:54:42.305Z,23.29
2023-04-21T04:56:42.306Z,23.26
2023-04-21T04:58:42.219Z,23.26
2023-04-21T05:00:42.346Z,23.26
2023-04-21T05:02:42.499Z,23.26
2023-04-21T05:04:42.433Z,23.22
2023-04-21T05:06:42.310Z,23.25
2023-04-21T05:08:42.368Z,23.34
2023-04-21T05:10:42.261Z,23.27
2023-04-21T05:12:42.370Z,23.26
2023-04-21T05:14:42.377Z,23.38
2023-04-21T05:16:42.397Z,23.38
2023-04-21T05:18:42.288Z,23.42
2023-04-21T05:20:42.342Z,23.51
2023-04-21T05:22:42.359Z,23.54
2023-04-21T05:24:42.386Z,23.59
2023-04-21T05:26:42.362Z,23.76
2023-04-21T05:28:42.302Z,23.71
2023-04-21T05:30:42.333Z,23.80
2023-04-21T05:32:42.447Z,23.90
2023-04-21T05:34:42.375Z,23.96
2023-04-21T05:36:42.387Z,23.93
2023-04-21T05:38:42.408Z,23.96
2023-04-21T05:40:42.375Z,24.02
2023-04-21T05:42:42.354Z,23.97
2023-04-21T05:44:42.369Z,23.96
2023-04-21T05:46:42.408Z,23.96
2023-04-21T05:48:42.327Z,23.96
2023-04-21T05:50:42.328Z,24.08
2023-04-21T05:52:42.321Z,24.01
2023-04-21T05:54:42.394Z,24.11
2023-04-21T05:56:42.370Z,24.23
2023-04-21T05:58:42.389Z,24.18
2023-04-21T06:00:42.294Z,24.27
2023-04-21T06:02:42.445Z,24.37
2023-04-21T06:04:42.564Z,24.39
2023-04-21T06:06:42.369Z,24.52
2023-04-21T06:08:42.368Z,24.44
2023-04-21T06:10:42.480Z,24.52
2023-04-21T06:12:42.361Z,24.52
2023-04-21T06:14:42.394Z,24.56
2023-04-21T06:16:42.416Z,24.54
2023-04-21T06:18:42.399Z,24.62
2023-04-21T06:20:42.422Z,24.66
2023-04-21T06:22:42.384Z,24.70
2023-04-21T06:24:42.402Z,24.66
2023-04-21T06:26:42.408Z,24.66
2023-04-21T06:28:42.397Z,24.55
2023-04-21T06:30:42.451Z,24.55
2023-04-21T06:32:42.434Z,24.52
2023-04-21T06:34:42.363Z,24.58
2023-04-21T06:36:42.410Z,24.48
2023-04-21T06:38:42.431Z,24.52
2023-04-21T06:40:42.444Z,24.51
2023-04-21T06:42:42.486Z,24.27
2023-04-21T06:44:42.397Z,24.48
2023-04-21T06:46:42.476Z,24.43
2023-04-21T06:48:42.437Z,24.23
2023-04-21T06:50:42.403Z,24.57
2023-04-21T06:52:42.345Z,24.76
2023-04-21T06:54:42.456Z,24.66
2023-04-21T06:56:42.386Z,24.90
2023-04-21T06:58:42.357Z,24.76
2023-04-21T07:00:42.553Z,24.82
2023-04-21T07:02:42.520Z,24.87
2023-04-21T07:04:42.466Z,24.93
2023-04-21T07:06:42.415Z,24.98
2023-04-21T07:08:42.441Z,24.96
2023-04-21T07:10:42.462Z,25.04
2023-04-21T07:12:42.493Z,24.85
2023-04-21T07:14:42.461Z,25.09
2023-04-21T07:16:42.566Z,25.21
2023-04-21T07:18:42.392Z,25.17
2023-04-21T07:20:42.451Z,25.29
2023-04-21T07:22:42.444Z,25.35
2023-04-21T07:24:42.452Z,25.37
2023-04-21T07:26:42.455Z,25.51
2023-04-21T07:28:42.364Z,25.61
2023-04-21T07:30:42.502Z,25.74
2023-04-21T07:32:42.414Z,25.80
2023-04-21T07:34:42.448Z,25.93
2023-04-21T07:36:42.461Z,25.85
2023-04-21T07:38:42.521Z,25.92
2023-04-21T07:40:42.556Z,25.84
2023-04-21T07:42:42.567Z,25.97
2023-04-21T07:44:42.583Z,26.04
2023-04-21T07:46:42.662Z,26.20
2023-04-21T07:48:42.557Z,26.37
2023-04-21T07:50:42.478Z,25.47
2023-04-21T07:52:42.567Z,25.04
2023-04-21T07:54:42.499Z,25.01
2023-04-21T07:56:42.540Z,24.99
2023-04-21T07:58:42.500Z,24.93
2023-04-21T08:00:42.518Z,24.98
2023-04-21T08:02:42.688Z,25.19
2023-04-21T08:04:42.676Z,25.29
2023-04-21T08:06:42.669Z,25.29
2023-04-21T08:08:42.612Z,25.25
2023-04-21T08:10:42.511Z,25.12
2023-04-21T08:12:42.492Z,26.20
2023-04-21T08:14:42.577Z,24.97
2023-04-21T08:16:42.597Z,24.95
2023-04-21T08:18:42.584Z,24.90
2023-04-21T08:20:42.519Z,24.93
2023-04-21T08:22:42.753Z,24.97
2023-04-21T08:24:42.555Z,24.97
2023-04-21T08:26:42.468Z,24.98
2023-04-21T08:28:42.429Z,25.04
2023-04-21T08:30:42.498Z,25.00
2023-04-21T08:32:42.515Z,24.97
2023-04-21T08:34:42.527Z,25.07
2023-04-21T08:36:42.540Z,26.87
2023-04-21T08:38:42.556Z,26.90
2023-04-21T08:40:42.538Z,25.14
2023-04-21T08:42:42.518Z,26.04
2023-04-21T08:44:42.382Z,26.35
2023-04-21T08:46:42.593Z,25.31
2023-04-21T08:48:42.577Z,25.29
2023-04-21T08:50:42.565Z,25.35
2023-04-21T08:52:42.564Z,25.20
2023-04-21T08:54:42.569Z,25.28
2023-04-21T08:56:42.539Z,25.44
2023-04-21T08:58:42.468Z,25.25
2023-04-21T09:00:42.593Z,25.31
2023-04-21T09:02:42.841Z,25.24
2023-04-21T09:04:42.957Z,25.38
2023-04-21T09:06:42.547Z,25.23
2023-04-21T09:08:42.587Z,25.29
2023-04-21T09:10:42.497Z,25.37
2023-04-21T09:12:42.518Z,25.29
2023-04-21T09:14:42.617Z,26.93
2023-04-21T09:16:42.611Z,24.95
2023-04-21T09:18:42.572Z,26.46
2023-04-21T09:20:42.487Z,25.43
2023-04-21T09:22:42.561Z,25.26
2023-04-21T09:24:42.583Z,25.22
2023-04-21T09:26:42.634Z,25.22
2023-04-21T09:28:42.581Z,25.13
2023-04-21T09:30:42.567Z,25.15
2023-04-21T09:32:42.654Z,25.23
2023-04-21T09:34:42.670Z,25.21
2023-04-21T09:36:42.425Z,25.23
2023-04-21T09:38:42.643Z,25.18
2023-04-21T09:40:42.612Z,25.18
2023-04-21T09:42:44.695Z,25.11
2023-04-21T09:44:52.437Z,25.52
2023-04-21T09:46:42.758Z,24.94
2023-04-21T09:48:42.468Z,25.28
2023-04-21T09:51:20.984Z,24.91
2023-04-21T09:52:42.545Z,24.95
2023-04-21T09:54:42.582Z,25.06
2023-04-21T09:56:42.692Z,25.03
2023-04-21T09:58:42.579Z,24.95
2023-04-21T10:00:42.636Z,25.19
2023-04-21T10:02:42.693Z,25.18
2023-04-21T10:04:43.073Z,25.28
2023-04-21T10:06:42.644Z,25.21
2023-04-21T10:08:42.702Z,25.37
2023-04-21T10:10:42.709Z,25.79
2023-04-21T10:12:42.686Z,25.90
2023-04-21T10:14:42.672Z,24.99
2023-04-21T10:16:42.851Z,24.94
2023-04-21T10:18:42.560Z,25.01
2023-04-21T10:20:42.672Z,25.08
2023-04-21T10:22:42.718Z,25.12
2023-04-21T10:24:42.484Z,25.23
2023-04-21T10:26:42.647Z,25.06
2023-04-21T10:28:42.690Z,25.11
2023-04-21T10:30:42.672Z,25.32
2023-04-21T10:32:42.994Z,25.40
2023-04-21T10:34:42.650Z,25.00
2023-04-21T10:36:42.660Z,25.01
2023-04-21T10:38:42.918Z,25.05
2023-04-21T10:40:44.630Z,25.85
2023-04-21T10:42:42.655Z,25.47
2023-04-21T10:44:42.523Z,24.99
2023-04-21T10:46:42.653Z,25.10
2023-04-21T10:48:42.566Z,24.97
2023-04-21T10:50:42.753Z,24.96
2023-04-21T10:52:42.693Z,25.13
2023-04-21T10:54:42.640Z,25.00
2023-04-21T10:56:42.728Z,25.13
2023-04-21T10:58:42.735Z,25.09
2023-04-21T11:00:42.690Z,25.15
2023-04-21T11:02:45.014Z,25.13
2023-04-21T11:04:42.740Z,25.06
2023-04-21T11:06:42.754Z,25.06
2023-04-21T11:08:42.658Z,25.14
2023-04-21T11:10:42.718Z,25.18
2023-04-21T11:12:42.701Z,26.79
2023-04-21T11:14:42.869Z,24.98
2023-04-21T11:16:42.781Z,25.13
2023-04-21T11:18:42.728Z,25.42
2023-04-21T11:20:42.692Z,25.47
2023-04-21T11:22:42.690Z,25.15
2023-04-21T11:24:42.707Z,25.05
2023-04-21T11:26:42.735Z,25.23
2023-04-21T11:28:42.747Z,26.88
2023-04-21T11:30:42.762Z,26.89
2023-04-21T11:32:42.692Z,25.53
2023-04-21T11:34:42.702Z,25.01
2023-04-21T11:36:42.794Z,26.92
2023-04-21T11:38:42.707Z,26.32
2023-04-21T11:40:42.762Z,25.20
2023-04-21T11:42:42.683Z,25.78
2023-04-21T11:44:42.717Z,25.78
2023-04-21T11:46:42.788Z,24.95
2023-04-21T11:48:42.774Z,25.03
2023-04-21T11:50:42.777Z,25.17
2023-04-21T11:52:42.677Z,25.33
2023-04-21T11:54:42.698Z,25.35
2023-04-21T11:56:42.777Z,25.09
2023-04-21T11:58:42.780Z,25.08
2023-04-21T12:00:42.760Z,25.09
2023-04-21T12:02:42.893Z,25.19
2023-04-21T12:04:42.918Z,25.13
2023-04-21T12:06:42.748Z,25.03
2023-04-21T12:08:42.710Z,25.04
2023-04-21T12:10:42.708Z,26.92
2023-04-21T12:12:42.769Z,25.04
2023-04-21T12:14:43.729Z,27.00
2023-04-21T12:16:42.837Z,26.93
2023-04-21T12:18:42.831Z,24.98
2023-04-21T12:20:42.831Z,24.98
2023-04-21T12:22:42.842Z,25.08
2023-04-21T12:24:42.745Z,25.05
2023-04-21T12:26:42.710Z,25.19
2023-04-21T12:28:42.772Z,25.10
2023-04-21T12:30:43.121Z,24.98
2023-04-21T12:32:42.764Z,26.38
2023-04-21T12:34:42.802Z,25.03
2023-04-21T12:36:42.719Z,24.95
2023-04-21T12:38:42.798Z,24.97
2023-04-21T12:40:42.756Z,24.96
2023-04-21T12:42:42.810Z,26.93
2023-04-21T12:44:42.777Z,25.72
2023-04-21T12:46:42.725Z,26.91
2023-04-21T12:48:42.725Z,25.12
2023-04-21T12:50:42.777Z,26.32
2023-04-21T12:52:42.798Z,26.93
2023-04-21T12:54:42.779Z,26.92
2023-04-21T12:56:42.840Z,24.98
2023-04-21T12:58:42.851Z,25.00
2023-04-21T13:00:42.804Z,26.89
2023-04-21T13:02:42.932Z,26.92
2023-04-21T13:04:42.932Z,26.85
2023-04-21T13:06:42.782Z,25.09
2023-04-21T13:08:42.827Z,26.93
2023-04-21T13:10:42.719Z,24.98
2023-04-21T13:12:42.789Z,26.93
2023-04-21T13:14:42.844Z,24.92
2023-04-21T13:16:42.928Z,25.00
2023-04-21T13:18:42.763Z,26.82
2023-04-21T13:20:42.847Z,24.98
2023-04-21T13:22:42.814Z,26.88
2023-04-21T13:24:42.678Z,25.03
2023-04-21T13:26:42.889Z,26.93
2023-04-21T13:28:42.794Z,26.97
2023-04-21T13:30:42.801Z,26.65
2023-04-21T13:32:42.822Z,25.05
2023-04-21T13:34:42.837Z,25.37
2023-04-21T13:36:42.872Z,24.98
2023-04-21T13:38:42.948Z,26.92
2023-04-21T13:40:42.858Z,24.99
2023-04-21T13:42:42.887Z,24.95
2023-04-21T13:44:42.866Z,26.91
2023-04-21T13:46:42.996Z,25.00
2023-04-21T13:48:42.915Z,26.92
2023-04-21T13:50:42.729Z,24.97
2023-04-21T13:52:42.905Z,26.93
2023-04-21T13:54:42.791Z,26.98
2023-04-21T13:56:42.909Z,25.37
2023-04-21T13:58:42.932Z,24.98
2023-04-21T14:00:43.236Z,24.99
2023-04-21T14:02:43.003Z,26.79
2023-04-21T14:04:43.325Z,26.92
2023-04-21T14:06:42.936Z,26.93
2023-04-21T14:08:42.954Z,24.98
2023-04-21T14:10:42.920Z,24.95
2023-04-21T14:12:42.887Z,25.29
2023-04-21T14:14:42.954Z,25.09
2023-04-21T14:16:43.045Z,26.68
2023-04-21T14:18:43.024Z,24.96
2023-04-21T14:20:42.917Z,25.23
2023-04-21T14:22:42.907Z,25.33
2023-04-21T14:24:42.874Z,25.43
2023-04-21T14:26:42.948Z,24.85
2023-04-21T14:28:42.897Z,26.84
2023-04-21T14:30:42.986Z,26.82
2023-04-21T14:32:42.919Z,24.83
2023-04-21T14:34:42.859Z,24.93
2023-04-21T14:36:42.917Z,25.03
2023-04-21T14:38:43.038Z,26.82
2023-04-21T14:40:42.954Z,26.79
2023-04-21T14:42:42.908Z,26.95
2023-04-21T14:44:42.923Z,24.91
2023-04-21T14:46:46.124Z,24.96
2023-04-21T14:48:42.931Z,24.99
2023-04-21T14:50:42.887Z,26.77
2023-04-21T14:52:42.967Z,25.47
2023-04-21T14:54:42.969Z,24.98
2023-04-21T14:56:42.901Z,25.05
2023-04-21T14:58:42.922Z,25.22
2023-04-21T15:00:42.924Z,26.95
2023-04-21T15:02:43.235Z,25.50
2023-04-21T15:04:42.978Z,26.53
2023-04-21T15:06:43.024Z,25.05
2023-04-21T15:08:42.984Z,25.10
2023-04-21T15:10:42.959Z,25.18
2023-04-21T15:12:43.022Z,25.13
2023-04-21T15:14:42.914Z,26.64
2023-04-21T15:16:42.965Z,26.89
2023-04-21T15:18:42.897Z,26.93
2023-04-21T15:20:45.535Z,25.13
2023-04-21T15:22:43.004Z,25.06
2023-04-21T15:24:43.012Z,25.07
2023-04-21T15:26:42.995Z,25.10
2023-04-21T15:28:43.015Z,25.18
2023-04-21T15:30:43.010Z,25.28
2023-04-21T15:32:43.014Z,26.85
2023-04-21T15:34:42.973Z,24.98
2023-04-21T15:36:42.966Z,25.10
2023-04-21T15:38:42.985Z,25.06
2023-04-21T15:40:49.756Z,25.05
2023-04-21T15:42:42.970Z,24.97
2023-04-21T15:44:42.873Z,26.39
2023-04-21T15:46:43.135Z,25.88
2023-04-21T15:48:42.997Z,25.05
2023-04-21T15:50:43.032Z,25.06
2023-04-21T15:52:43.057Z,25.02
2023-04-21T15:54:43.021Z,25.00
2023-04-21T15:56:43.041Z,25.13
2023-04-21T15:58:43.051Z,25.23
2023-04-21T16:00:42.953Z,26.74
2023-04-21T16:02:43.133Z,26.94
2023-04-21T16:04:43.964Z,25.63
2023-04-21T16:06:43.027Z,25.05
2023-04-21T16:08:42.985Z,25.06
2023-04-21T16:10:43.016Z,24.97
2023-04-21T16:12:43.071Z,25.09
2023-04-21T16:14:55.814Z,25.18
2023-04-21T16:16:43.002Z,25.21
2023-04-21T16:18:43.109Z,27.00
2023-04-21T16:20:43.118Z,25.08
2023-04-21T16:22:43.069Z,25.04
2023-04-21T16:24:43.313Z,25.91
2023-04-21T16:26:43.076Z,25.00
2023-04-21T16:28:43.079Z,25.18
2023-04-21T16:30:43.313Z,25.29
2023-04-21T16:32:42.947Z,25.22
2023-04-21T16:34:43.181Z,25.23
2023-04-21T16:36:43.075Z,24.75
2023-04-21T16:38:43.082Z,24.61
2023-04-21T16:40:43.070Z,24.37
2023-04-21T16:42:43.121Z,24.55
2023-04-21T16:44:43.171Z,24.51
2023-04-21T16:46:43.161Z,24.40
2023-04-21T16:48:43.133Z,24.43
2023-04-21T16:50:43.174Z,24.39
2023-04-21T16:52:43.031Z,24.22
2023-04-21T16:54:43.050Z,24.15
2023-04-21T16:56:43.198Z,24.08
2023-04-21T16:58:43.104Z,24.01
2023-04-21T17:00:43.012Z,24.05
2023-04-21T17:02:43.295Z,23.88
2023-04-21T17:04:43.122Z,23.93
2023-04-21T17:06:43.046Z,23.95
2023-04-21T17:08:43.136Z,23.96
2023-04-21T17:10:42.995Z,23.96
2023-04-21T17:12:43.063Z,23.96
2023-04-21T17:14:43.053Z,23.90
2023-04-21T17:16:43.193Z,23.90
2023-04-21T17:18:43.116Z,23.96
2023-04-21T17:20:43.191Z,23.81
2023-04-21T17:22:43.025Z,23.89
2023-04-21T17:24:52.398Z,23.87
2023-04-21T17:26:43.085Z,23.90
2023-04-21T17:28:43.165Z,23.81
2023-04-21T17:30:43.086Z,23.64
2023-04-21T17:32:43.171Z,23.65
2023-04-21T17:34:42.964Z,23.68
2023-04-21T17:36:43.068Z,23.72
2023-04-21T17:38:43.266Z,23.79
2023-04-21T17:40:43.091Z,23.72
2023-04-21T17:42:43.155Z,23.77
2023-04-21T17:44:43.008Z,23.73
2023-04-21T17:46:43.114Z,23.72
2023-04-21T17:48:43.085Z,23.70
2023-04-21T17:50:42.968Z,23.70
2023-04-21T17:52:43.141Z,23.65
2023-04-21T17:54:43.140Z,23.65
2023-04-21T17:56:43.135Z,23.65
2023-04-21T17:58:43.095Z,23.62
2023-04-21T18:00:43.142Z,23.66
2023-04-21T18:02:43.202Z,23.84
2023-04-21T18:04:44.012Z,23.85
2023-04-21T18:06:43.150Z,23.84
2023-04-21T18:08:43.116Z,23.96
2023-04-21T18:10:43.098Z,23.98
2023-04-21T18:12:43.156Z,23.88
2023-04-21T18:14:43.176Z,23.96
2023-04-21T18:16:43.186Z,23.83
2023-04-21T18:18:43.176Z,23.91
2023-04-21T18:20:43.048Z,23.93
2023-04-21T18:22:43.052Z,23.85
2023-04-21T18:24:43.089Z,23.89
2023-04-21T18:26:43.170Z,23.82
2023-04-21T18:28:43.167Z,23.84
2023-04-21T18:30:43.157Z,23.81
2023-04-21T18:32:43.309Z,23.81
2023-04-21T18:34:43.059Z,23.81
2023-04-21T18:36:43.106Z,23.81
2023-04-21T18:38:43.134Z,23.81
2023-04-21T18:40:43.137Z,23.81
2023-04-21T18:42:43.114Z,23.81
2023-04-21T18:44:43.096Z,23.83
2023-04-21T18:46:43.110Z,23.81
2023-04-21T18:48:43.207Z,23.81
2023-04-21T18:50:43.248Z,26.93
2023-04-21T18:52:43.152Z,27.08
2023-04-21T18:54:43.116Z,27.08
2023-04-21T18:56:43.236Z,25.47
2023-04-21T18:58:43.132Z,25.52
2023-04-21T19:00:43.200Z,25.52
2023-04-21T19:02:43.431Z,25.60
2023-04-21T19:04:43.255Z,25.53
2023-04-21T19:06:43.146Z,25.51
2023-04-21T19:08:43.356Z,25.58
2023-04-21T19:10:43.200Z,25.56
2023-04-21T19:12:43.227Z,25.51
2023-04-21T19:14:47.582Z,25.57
2023-04-21T19:16:43.344Z,25.60
2023-04-21T19:18:43.237Z,25.52
2023-04-21T19:20:43.258Z,25.52
2023-04-21T19:22:43.148Z,25.52
2023-04-21T19:24:43.229Z,25.51
2023-04-21T19:26:43.218Z,25.52
2023-04-21T19:28:43.247Z,25.58
2023-04-21T19:30:43.285Z,25.60
2023-04-21T19:32:43.317Z,25.52
2023-04-21T19:34:43.301Z,25.53
2023-04-21T19:36:43.252Z,25.56
2023-04-21T19:38:43.272Z,25.54
2023-04-21T19:40:43.203Z,25.52
2023-04-21T19:42:43.268Z,25.51
2023-04-21T19:44:43.180Z,25.49
2023-04-21T19:46:43.481Z,25.49
2023-04-21T19:48:43.255Z,25.49
2023-04-21T19:50:43.233Z,25.42
2023-04-21T19:52:43.242Z,25.53
2023-04-21T19:54:43.252Z,25.54
2023-04-21T19:56:43.230Z,25.46
2023-04-21T19:58:43.255Z,25.52
2023-04-21T20:00:43.366Z,25.60
2023-04-21T20:02:43.194Z,25.52
2023-04-21T20:04:43.215Z,25.52
2023-04-21T20:06:43.243Z,25.52
2023-04-21T20:08:43.311Z,25.53
2023-04-21T20:10:43.196Z,25.52
2023-04-21T20:12:43.309Z,25.52
2023-04-21T20:14:43.282Z,25.53
2023-04-21T20:16:45.531Z,25.56
2023-04-21T20:18:43.446Z,25.44
2023-04-21T20:20:43.390Z,25.39
2023-04-21T20:22:43.367Z,25.35
2023-04-21T20:24:43.522Z,25.39
2023-04-21T20:26:43.325Z,25.33
2023-04-21T20:28:43.302Z,25.52
2023-04-21T20:30:43.370Z,25.47
2023-04-21T20:32:43.522Z,25.40
2023-04-21T20:34:43.455Z,25.40
2023-04-21T20:36:43.323Z,25.31
2023-04-21T20:38:43.326Z,25.33
2023-04-21T20:40:43.395Z,25.38
2023-04-21T20:42:43.327Z,25.37
2023-04-21T20:44:43.406Z,25.38
2023-04-21T20:46:43.439Z,25.52
2023-04-21T20:48:43.408Z,25.41
2023-04-21T20:50:45.741Z,25.40
2023-04-21T20:52:43.383Z,25.51
2023-04-21T20:54:43.332Z,25.43
2023-04-21T20:56:43.257Z,25.58
2023-04-21T20:58:43.359Z,25.41
2023-04-21T21:00:43.522Z,25.44
2023-04-21T21:02:43.469Z,25.41
2023-04-21T21:04:43.468Z,25.42
2023-04-21T21:06:43.390Z,25.43
2023-04-21T21:08:43.480Z,25.47
2023-04-21T21:10:43.323Z,25.47
2023-04-21T21:12:43.343Z,25.60
2023-04-21T21:14:43.387Z,25.52
2023-04-21T21:16:43.349Z,25.52
2023-04-21T21:18:43.391Z,25.49
2023-04-21T21:20:43.309Z,25.54
2023-04-21T21:22:43.399Z,25.60
2023-04-21T21:24:43.334Z,25.52
2023-04-21T21:26:43.206Z,25.51
2023-04-21T21:28:43.352Z,25.51
2023-04-21T21:30:43.344Z,25.53
2023-04-21T21:32:43.411Z,25.47
2023-04-21T21:34:43.248Z,25.52
2023-04-21T21:36:43.359Z,25.52
2023-04-21T21:38:43.350Z,25.49
2023-04-21T21:40:43.568Z,25.52
2023-04-21T21:42:43.415Z,25.52
2023-04-21T21:44:43.340Z,25.28
2023-04-21T21:46:43.467Z,25.52
2023-04-21T21:48:43.423Z,25.52
2023-04-21T21:50:43.394Z,25.58
2023-04-21T21:52:43.395Z,25.52
2023-04-21T21:54:43.334Z,25.44
2023-04-21T21:56:43.293Z,25.52
2023-04-21T21:58:43.201Z,25.52
2023-04-21T22:00:43.291Z,25.56
2023-04-21T22:02:43.554Z,25.51
2023-04-21T22:04:43.416Z,25.52
2023-04-21T22:06:43.337Z,25.51
2023-04-21T22:08:43.408Z,25.52
2023-04-21T22:10:43.376Z,25.52
2023-04-21T22:12:43.348Z,25.52
2023-04-21T22:14:43.350Z,25.52
2023-04-21T22:16:43.314Z,25.52
2023-04-21T22:18:43.468Z,25.54
2023-04-21T22:20:43.333Z,25.52
2023-04-21T22:22:43.410Z,25.65
2023-04-21T22:24:43.392Z,25.52
2023-04-21T22:26:43.323Z,25.52
2023-04-21T22:28:43.322Z,25.52
2023-04-21T22:30:43.377Z,25.52
2023-04-21T22:32:43.416Z,25.52
2023-04-21T22:34:43.504Z,25.52
2023-04-21T22:36:43.447Z,25.58
2023-04-21T22:38:43.450Z,25.53
2023-04-21T22:40:43.374Z,25.52
2023-04-21T22:42:43.475Z,25.52
2023-04-21T22:44:43.459Z,25.51
2023-04-21T22:46:43.406Z,25.52
2023-04-21T22:48:43.389Z,25.52
2023-04-21T22:50:43.358Z,25.61
2023-04-21T22:52:43.407Z,25.52
2023-04-21T22:54:43.375Z,25.51
2023-04-21T22:56:43.436Z,25.52
2023-04-21T22:58:43.418Z,25.60
2023-04-21T23:00:43.463Z,25.53
2023-04-21T23:02:43.659Z,25.52
2023-04-21T23:04:43.428Z,25.52
2023-04-21T23:06:43.428Z,25.52
2023-04-21T23:08:43.428Z,25.52
2023-04-21T23:10:43.418Z,25.47
2023-04-21T23:12:43.465Z,25.51
2023-04-21T23:14:43.451Z,25.46
2023-04-21T23:16:43.422Z,25.47
2023-04-21T23:18:43.358Z,25.51
2023-04-21T23:20:43.415Z,25.50
2023-04-21T23:22:43.466Z,25.49
2023-04-21T23:24:43.457Z,25.49
2023-04-21T23:26:43.528Z,25.50
2023-04-21T23:28:43.492Z,25.53
2023-04-21T23:30:43.385Z,25.54
2023-04-21T23:32:43.577Z,25.50
2023-04-21T23:34:43.441Z,25.52
2023-04-21T23:36:43.472Z,25.44
2023-04-21T23:38:43.496Z,25.52
2023-04-21T23:40:43.469Z,25.52
2023-04-21T23:42:47.431Z,25.46
2023-04-21T23:44:43.558Z,25.47
2023-04-21T23:46:43.505Z,25.52
2023-04-21T23:48:43.491Z,25.51
2023-04-21T23:50:43.452Z,25.25
2023-04-21T23:52:43.496Z,25.54
2023-04-21T23:54:43.553Z,25.52
2023-04-21T23:56:43.500Z,25.50
2023-04-21T23:58:43.456Z,25.53
